To NAV CANADA Home Page Login to a new session Search on AWWS site Feedback and Comments Disclaimer Vers la page française équivalente Tips FAQ What's new on the site To the Forecasts and Observations / NOTAM section To "File a Flight Plan" website Publications and other links Update of the User's profile FIC Telephone Numbers My Weather Data Folder Route Weather Data Regional Weather Data Local Weather Data To the Forecasts and Observations / NOTAM section
Request Generated 06/26/2017 at 03:45:42 UTC . Weather information available at that time is displayed.

METAR/TAF

If you find any discrepancies between the coded METAR/TAF and the plain language METAR/TAF please use the coded METAR/TAF. LWIS bulletins are not decoded in plain language.

VANCOUVER INTL/BC    (show WxCam)

METAR CYVR 260300Z 25004KT 30SM SCT160 BKN190 OVC220 20/18 A2981 RMK AC3AC2CS3 SLP095 DENSITY ALT 800FT=
METAR
LOCATION
CYVR - VANCOUVER INTL/BC
DATE - TIME
26 JUNE 2017 - 0300 UTC
WIND
250 TRUE @ 4  KNOTS
VISIBILITY
30 STAT.  MILES
RUNWAY VISUAL RANGE
WEATHER
CLOUDINESS
SCATTERED CLOUDS (3/8 - 4/8) 16000  FT
BROKEN CLOUDS (5/8 - 7/8) 19000  FT
OVERCAST 22000  FT
TEMP / DEWPOINT
20 C / 18 C
ALTIMETER
29.81 IN HG
RECENT WEATHER
WIND SHEAR

METAR CYVR 260200Z 23002KT 30SM FEW160 SCT200 OVC240 22/17 A2981 RMK AC2CC2CS4 SLP095 DENSITY ALT 1000FT=
METAR
LOCATION
CYVR - VANCOUVER INTL/BC
DATE - TIME
26 JUNE 2017 - 0200 UTC
WIND
230 TRUE @ 2  KNOTS
VISIBILITY
30 STAT.  MILES
RUNWAY VISUAL RANGE
WEATHER
CLOUDINESS
FEW CLOUDS (1/8 - 2/8) 16000  FT
SCATTERED CLOUDS (3/8 - 4/8) 20000  FT
OVERCAST 24000  FT
TEMP / DEWPOINT
22 C / 17 C
ALTIMETER
29.81 IN HG
RECENT WEATHER
WIND SHEAR

METAR CYVR 260100Z 27005KT 30SM SCT190 BKN240 23/17 A2982 RMK AC3CI3 CC SLP101 DENSITY ALT 1100FT=
METAR
LOCATION
CYVR - VANCOUVER INTL/BC
DATE - TIME
26 JUNE 2017 - 0100 UTC
WIND
270 TRUE @ 5  KNOTS
VISIBILITY
30 STAT.  MILES
RUNWAY VISUAL RANGE
WEATHER
CLOUDINESS
SCATTERED CLOUDS (3/8 - 4/8) 19000  FT
BROKEN CLOUDS (5/8 - 7/8) 24000  FT
TEMP / DEWPOINT
23 C / 17 C
ALTIMETER
29.82 IN HG
RECENT WEATHER
WIND SHEAR

TAF CYVR 260238Z 2603/2706 VRB03KT P6SM FEW160 OVC240 BECMG 2610/2612 10010KT FM261800 26010KT P6SM SKC BECMG 2700/2702 26015G25KT RMK NXT FCST BY 260600Z=
TAF
LOCATION

CYVR - VANCOUVER INTL/BC
VALIDITY [UTC]
26 JUN - 0238 to
27 JUN - 0600
 
TIMES
[UTC]
WIND
[DEGREES TRUE]
VISIBILITY
[STAT. MILES]
WEATHER
CLOUDINESS
[FEET AGL]
 
26 JUN - 0300 to
26 JUN - 1800
VARIABLE @ 3 KNOTS
6+
NIL
16000 FEW
24000 FEW
24000 OVERCAST
BECOMING
26 JUN - 1000 to
26 JUN - 1200
100 @ 10 KNOTS
 
 
 
 
26 JUN - 1800 to
27 JUN - 0600
260 @ 10 KNOTS
6+
NIL
CLEAR SKY
BECOMING
27 JUN - 0000 to
27 JUN - 0200
260 @ 15 KNOTS
GUSTS 25 KNOTS
 
 
 
REMARKS
THE NEXT FORECAST WILL BE ISSUED BY 0600 UTC ON DAY 26


Your time UTC time
Weather data provided by Environment Canada and NAV CANADA